sensor_id;sensor_type;location;lat;lon;timestamp;pressure;altitude;pressure_sealevel;temperature;humidity
36692;BME280;22678;52.052;4.242;2022-08-01T00:01:12;101770.13;;;19.91;86.81
36692;BME280;22678;52.052;4.242;2022-08-01T00:03:37;101753.59;;;19.80;86.96
36692;BME280;22678;52.052;4.242;2022-08-01T00:06:02;101772.06;;;19.88;86.59
36692;BME280;22678;52.052;4.242;2022-08-01T00:08:27;101759.81;;;19.81;87.05
36692;BME280;22678;52.052;4.242;2022-08-01T00:10:53;101757.38;;;19.73;86.82
36692;BME280;22678;52.052;4.242;2022-08-01T00:13:18;101754.75;;;19.71;87.11
36692;BME280;22678;52.052;4.242;2022-08-01T00:15:43;101777.56;;;19.82;87.16
36692;BME280;22678;52.052;4.242;2022-08-01T00:18:09;101763.69;;;19.70;87.07
36692;BME280;22678;52.052;4.242;2022-08-01T00:20:34;101768.91;;;19.73;87.21
36692;BME280;22678;52.052;4.242;2022-08-01T00:23:02;101760.84;;;19.75;87.21
36692;BME280;22678;52.052;4.242;2022-08-01T00:25:28;101777.03;;;19.70;87.24
36692;BME280;22678;52.052;4.242;2022-08-01T00:27:53;101766.44;;;19.67;87.28
36692;BME280;22678;52.052;4.242;2022-08-01T00:30:19;101768.16;;;19.68;87.56
36692;BME280;22678;52.052;4.242;2022-08-01T00:32:44;101751.66;;;19.57;87.71
36692;BME280;22678;52.052;4.242;2022-08-01T00:35:10;101774.34;;;19.70;87.63
36692;BME280;22678;52.052;4.242;2022-08-01T00:37:36;101760.41;;;19.60;87.75
36692;BME280;22678;52.052;4.242;2022-08-01T00:40:01;101777.94;;;19.69;88.33
36692;BME280;22678;52.052;4.242;2022-08-01T00:42:26;101753.47;;;19.55;88.05
36692;BME280;22678;52.052;4.242;2022-08-01T00:44:52;101754.38;;;19.55;88.45
36692;BME280;22678;52.052;4.242;2022-08-01T00:47:17;101748.22;;;19.52;88.06
36692;BME280;22678;52.052;4.242;2022-08-01T00:49:43;101757.19;;;19.51;88.07
36692;BME280;22678;52.052;4.242;2022-08-01T00:52:09;101750.19;;;19.47;88.33
36692;BME280;22678;52.052;4.242;2022-08-01T00:54:35;101761.47;;;19.55;88.19
36692;BME280;22678;52.052;4.242;2022-08-01T00:57:00;101772.09;;;19.56;88.52
36692;BME280;22678;52.052;4.242;2022-08-01T00:59:26;101731.78;;;19.37;88.45
36692;BME280;22678;52.052;4.242;2022-08-01T01:01:51;101771.22;;;19.56;88.37
36692;BME280;22678;52.052;4.242;2022-08-01T01:04:17;101771.22;;;19.56;88.47
36692;BME280;22678;52.052;4.242;2022-08-01T01:09:34;101770.41;;;19.54;88.60
36692;BME280;22678;52.052;4.242;2022-08-01T01:12:15;101766.00;;;19.53;88.62
36692;BME280;22678;52.052;4.242;2022-08-01T01:14:45;101766.97;;;19.50;88.52
36692;BME280;22678;52.052;4.242;2022-08-01T01:17:17;101740.78;;;19.35;88.48
36692;BME280;22678;52.052;4.242;2022-08-01T01:19:51;101743.50;;;19.33;88.75
36692;BME280;22678;52.052;4.242;2022-08-01T01:22:24;101765.25;;;19.48;88.52
36692;BME280;22678;52.052;4.242;2022-08-01T01:27:42;101761.81;;;19.44;88.81
36692;BME280;22678;52.052;4.242;2022-08-01T01:30:10;101772.50;;;19.44;88.59
36692;BME280;22678;52.052;4.242;2022-08-01T01:32:39;101747.97;;;19.31;88.65
36692;BME280;22678;52.052;4.242;2022-08-01T01:35:09;101768.13;;;19.41;88.61
36692;BME280;22678;52.052;4.242;2022-08-01T01:37:38;101757.59;;;19.37;88.57
36692;BME280;22678;52.052;4.242;2022-08-01T01:40:05;101769.00;;;19.42;88.75
36692;BME280;22678;52.052;4.242;2022-08-01T01:42:32;101764.63;;;19.39;88.73
36692;BME280;22678;52.052;4.242;2022-08-01T01:44:58;101765.53;;;19.38;88.64
36692;BME280;22678;52.052;4.242;2022-08-01T01:47:25;101767.25;;;19.41;88.70
36692;BME280;22678;52.052;4.242;2022-08-01T01:49:54;101752.50;;;19.29;88.85
36692;BME280;22678;52.052;4.242;2022-08-01T01:52:23;101748.03;;;19.30;88.71
36692;BME280;22678;52.052;4.242;2022-08-01T01:54:51;101762.94;;;19.37;88.64
36692;BME280;22678;52.052;4.242;2022-08-01T01:57:18;101764.81;;;19.33;88.81
36692;BME280;22678;52.052;4.242;2022-08-01T01:59:46;101766.66;;;19.31;88.59
36692;BME280;22678;52.052;4.242;2022-08-01T02:02:13;101762.09;;;19.35;88.66
36692;BME280;22678;52.052;4.242;2022-08-01T02:04:42;101744.81;;;19.18;88.88
36692;BME280;22678;52.052;4.242;2022-08-01T02:07:10;101768.31;;;19.35;88.92
36692;BME280;22678;52.052;4.242;2022-08-01T02:09:37;101762.09;;;19.35;88.83
36692;BME280;22678;52.052;4.242;2022-08-01T02:12:05;101757.03;;;19.25;88.89
36692;BME280;22678;52.052;4.242;2022-08-01T02:14:32;101756.25;;;19.22;88.89
36692;BME280;22678;52.052;4.242;2022-08-01T02:17:00;101734.41;;;19.09;88.64
36692;BME280;22678;52.052;4.242;2022-08-01T02:19:28;101777.41;;;19.28;88.49
36692;BME280;22678;52.052;4.242;2022-08-01T02:22:01;101768.63;;;19.24;88.51
36692;BME280;22678;52.052;4.242;2022-08-01T02:24:48;101754.56;;;19.19;88.76
36692;BME280;22678;52.052;4.242;2022-08-01T02:27:19;101759.03;;;19.19;88.49
36692;BME280;22678;52.052;4.242;2022-08-01T02:30:06;101766.06;;;19.21;88.69
36692;BME280;22678;52.052;4.242;2022-08-01T02:32:36;101763.50;;;19.17;88.59
36692;BME280;22678;52.052;4.242;2022-08-01T02:37:34;101748.69;;;19.06;88.70
36692;BME280;22678;52.052;4.242;2022-08-01T02:40:01;101772.16;;;19.25;88.88
36692;BME280;22678;52.052;4.242;2022-08-01T02:42:28;101762.59;;;19.18;88.79
36692;BME280;22678;52.052;4.242;2022-08-01T02:44:56;101749.47;;;19.12;88.99
36692;BME280;22678;52.052;4.242;2022-08-01T02:47:23;101768.69;;;19.23;88.77
36692;BME280;22678;52.052;4.242;2022-08-01T02:49:52;101775.75;;;19.24;88.72
36692;BME280;22678;52.052;4.242;2022-08-01T02:52:19;101773.16;;;19.21;88.74
36692;BME280;22678;52.052;4.242;2022-08-01T02:54:47;101782.75;;;19.28;88.82
36692;BME280;22678;52.052;4.242;2022-08-01T02:57:14;101771.31;;;19.24;88.59
36692;BME280;22678;52.052;4.242;2022-08-01T02:59:42;101768.84;;;19.17;88.70
36692;BME280;22678;52.052;4.242;2022-08-01T03:02:08;101767.88;;;19.19;88.57
36692;BME280;22678;52.052;4.242;2022-08-01T03:04:36;101776.72;;;19.21;88.51
36692;BME280;22678;52.052;4.242;2022-08-01T03:07:06;101783.03;;;19.19;88.51
36692;BME280;22678;52.052;4.242;2022-08-01T03:09:35;101774.25;;;19.14;88.55
36692;BME280;22678;52.052;4.242;2022-08-01T03:12:04;101780.59;;;19.11;88.60
36692;BME280;22678;52.052;4.242;2022-08-01T03:14:35;101744.41;;;19.02;88.48
36692;BME280;22678;52.052;4.242;2022-08-01T03:17:01;101768.94;;;19.14;88.79
36692;BME280;22678;52.052;4.242;2022-08-01T03:19:30;101777.78;;;19.16;88.87
36692;BME280;22678;52.052;4.242;2022-08-01T03:21:56;101775.13;;;19.16;88.95
36692;BME280;22678;52.052;4.242;2022-08-01T03:24:25;101765.44;;;19.12;88.83
36692;BME280;22678;52.052;4.242;2022-08-01T03:26:52;101769.03;;;19.11;88.91
36692;BME280;22678;52.052;4.242;2022-08-01T03:29:23;101767.25;;;19.11;88.66
36692;BME280;22678;52.052;4.242;2022-08-01T03:31:51;101777.81;;;19.14;88.59
36692;BME280;22678;52.052;4.242;2022-08-01T03:34:17;101756.69;;;19.06;88.90
36692;BME280;22678;52.052;4.242;2022-08-01T03:37:05;101772.50;;;19.14;88.92
36692;BME280;22678;52.052;4.242;2022-08-01T03:39:39;101783.22;;;19.13;88.84
36692;BME280;22678;52.052;4.242;2022-08-01T03:42:09;101771.78;;;19.07;88.92
36692;BME280;22678;52.052;4.242;2022-08-01T03:44:37;101777.97;;;19.10;88.86
36692;BME280;22678;52.052;4.242;2022-08-01T03:47:06;101773.63;;;19.05;88.90
36692;BME280;22678;52.052;4.242;2022-08-01T03:49:37;101775.34;;;19.06;88.98
36692;BME280;22678;52.052;4.242;2022-08-01T03:52:04;101762.22;;;19.00;89.04
36692;BME280;22678;52.052;4.242;2022-08-01T03:54:34;101767.53;;;19.00;88.95
36692;BME280;22678;52.052;4.242;2022-08-01T03:57:01;101763.09;;;19.01;89.06
36692;BME280;22678;52.052;4.242;2022-08-01T03:59:28;101741.31;;;18.85;88.71
36692;BME280;22678;52.052;4.242;2022-08-01T04:01:55;101774.53;;;19.04;88.90
36692;BME280;22678;52.052;4.242;2022-08-01T04:04:21;101770.22;;;19.00;89.04
36692;BME280;22678;52.052;4.242;2022-08-01T04:06:46;101755.22;;;18.96;89.31
36692;BME280;22678;52.052;4.242;2022-08-01T04:09:15;101772.69;;;19.06;89.49
36692;BME280;22678;52.052;4.242;2022-08-01T04:11:41;101778.03;;;19.06;89.35
36692;BME280;22678;52.052;4.242;2022-08-01T04:14:06;101771.78;;;19.07;89.56
36692;BME280;22678;52.052;4.242;2022-08-01T04:16:32;101772.84;;;19.02;89.74
36692;BME280;22678;52.052;4.242;2022-08-01T04:18:57;101769.22;;;19.04;89.67
36692;BME280;22678;52.052;4.242;2022-08-01T04:21:25;101780.81;;;19.02;89.87
36692;BME280;22678;52.052;4.242;2022-08-01T04:23:54;101790.34;;;19.11;89.70
36692;BME280;22678;52.052;4.242;2022-08-01T04:26:21;101770.25;;;18.99;89.94
36692;BME280;22678;52.052;4.242;2022-08-01T04:28:47;101774.72;;;18.98;89.82
36692;BME280;22678;52.052;4.242;2022-08-01T04:31:16;101778.03;;;19.06;89.89
36692;BME280;22678;52.052;4.242;2022-08-01T04:33:46;101782.41;;;19.09;90.02
36692;BME280;22678;52.052;4.242;2022-08-01T04:36:14;101779.91;;;19.03;90.15
36692;BME280;22678;52.052;4.242;2022-08-01T04:38:42;101788.69;;;19.06;90.04
36692;BME280;22678;52.052;4.242;2022-08-01T04:41:12;101794.81;;;19.10;90.31
36692;BME280;22678;52.052;4.242;2022-08-01T04:43:38;101794.81;;;19.10;90.23
36692;BME280;22678;52.052;4.242;2022-08-01T04:46:08;101794.03;;;19.06;90.27
36692;BME280;22678;52.052;4.242;2022-08-01T04:48:37;101792.22;;;19.08;90.14
36692;BME280;22678;52.052;4.242;2022-08-01T04:51:03;101813.41;;;19.13;90.35
36692;BME280;22678;52.052;4.242;2022-08-01T04:53:28;101795.88;;;19.04;90.23
36692;BME280;22678;52.052;4.242;2022-08-01T04:55:54;101795.88;;;19.04;90.30
36692;BME280;22678;52.052;4.242;2022-08-01T04:58:20;101798.56;;;19.03;90.24
36692;BME280;22678;52.052;4.242;2022-08-01T05:00:46;101796.13;;;18.95;90.37
36692;BME280;22678;52.052;4.242;2022-08-01T05:03:11;101804.78;;;19.03;90.36
36692;BME280;22678;52.052;4.242;2022-08-01T05:05:36;101802.16;;;19.02;90.30
36692;BME280;22678;52.052;4.242;2022-08-01T05:08:02;101803.88;;;19.04;90.39
36692;BME280;22678;52.052;4.242;2022-08-01T05:10:27;101787.28;;;18.93;90.20
36692;BME280;22678;52.052;4.242;2022-08-01T05:12:53;101820.69;;;19.06;90.16
36692;BME280;22678;52.052;4.242;2022-08-01T05:15:18;101810.91;;;19.07;90.35
36692;BME280;22678;52.052;4.242;2022-08-01T05:17:44;101818.00;;;19.08;90.65
36692;BME280;22678;52.052;4.242;2022-08-01T05:20:10;101812.72;;;19.05;90.62
36692;BME280;22678;52.052;4.242;2022-08-01T05:22:37;101804.91;;;18.99;90.64
36692;BME280;22678;52.052;4.242;2022-08-01T05:25:02;101820.69;;;19.06;90.95
36692;BME280;22678;52.052;4.242;2022-08-01T05:27:30;101804.94;;;18.97;90.89
36692;BME280;22678;52.052;4.242;2022-08-01T05:29:55;101807.56;;;18.99;91.19
36692;BME280;22678;52.052;4.242;2022-08-01T05:32:20;101820.13;;;18.95;90.88
36692;BME280;22678;52.052;4.242;2022-08-01T05:34:46;101825.47;;;18.95;91.15
36692;BME280;22678;52.052;4.242;2022-08-01T05:37:11;101816.63;;;18.93;91.27
36692;BME280;22678;52.052;4.242;2022-08-01T05:39:36;101814.13;;;18.87;91.06
36692;BME280;22678;52.052;4.242;2022-08-01T05:42:02;101828.13;;;18.95;91.76
36692;BME280;22678;52.052;4.242;2022-08-01T05:44:27;101826.59;;;18.85;91.74
36692;BME280;22678;52.052;4.242;2022-08-01T05:46:52;101834.44;;;18.91;91.82
36692;BME280;22678;52.052;4.242;2022-08-01T05:49:18;101830.16;;;18.84;91.70
36692;BME280;22678;52.052;4.242;2022-08-01T05:51:43;101846.00;;;18.90;91.84
36692;BME280;22678;52.052;4.242;2022-08-01T05:54:08;101837.25;;;18.85;92.04
36692;BME280;22678;52.052;4.242;2022-08-01T05:56:34;101832.97;;;18.79;91.98
36692;BME280;22678;52.052;4.242;2022-08-01T05:58:59;101840.88;;;18.82;92.40
36692;BME280;22678;52.052;4.242;2022-08-01T06:01:25;101836.34;;;18.84;92.25
36692;BME280;22678;52.052;4.242;2022-08-01T06:03:50;101837.34;;;18.82;92.30
36692;BME280;22678;52.052;4.242;2022-08-01T06:06:15;101850.47;;;18.89;92.22
36692;BME280;22678;52.052;4.242;2022-08-01T06:08:41;101857.63;;;18.89;92.33
36692;BME280;22678;52.052;4.242;2022-08-01T06:11:06;101839.91;;;18.85;92.54
36692;BME280;22678;52.052;4.242;2022-08-01T06:13:32;101857.50;;;18.94;92.29
36692;BME280;22678;52.052;4.242;2022-08-01T06:15:57;101842.41;;;18.93;92.06
36692;BME280;22678;52.052;4.242;2022-08-01T06:18:23;101850.34;;;18.94;91.91
36692;BME280;22678;52.052;4.242;2022-08-01T06:20:49;101848.50;;;18.96;91.99
36692;BME280;22678;52.052;4.242;2022-08-01T06:23:14;101865.03;;;19.09;92.00
36692;BME280;22678;52.052;4.242;2022-08-01T06:25:43;101842.91;;;19.07;91.91
36692;BME280;22678;52.052;4.242;2022-08-01T06:28:09;101863.81;;;19.21;91.68
36692;BME280;22678;52.052;4.242;2022-08-01T06:30:34;101870.47;;;19.37;91.73
36692;BME280;22678;52.052;4.242;2022-08-01T06:33:00;101868.38;;;19.49;91.24
36692;BME280;22678;52.052;4.242;2022-08-01T06:35:26;101875.09;;;19.62;91.42
36692;BME280;22678;52.052;4.242;2022-08-01T06:37:53;101870.31;;;19.73;90.59
36692;BME280;22678;52.052;4.242;2022-08-01T06:40:18;101870.97;;;19.82;90.08
36692;BME280;22678;52.052;4.242;2022-08-01T06:42:44;101868.41;;;19.78;89.75
36692;BME280;22678;52.052;4.242;2022-08-01T06:45:11;101872.91;;;19.76;89.21
36692;BME280;22678;52.052;4.242;2022-08-01T06:47:42;101868.75;;;19.66;89.03
36692;BME280;22678;52.052;4.242;2022-08-01T06:50:09;101883.72;;;19.72;89.01
36692;BME280;22678;52.052;4.242;2022-08-01T06:52:35;101881.91;;;19.72;88.73
36692;BME280;22678;52.052;4.242;2022-08-01T06:55:01;101881.84;;;19.74;88.68
36692;BME280;22678;52.052;4.242;2022-08-01T06:57:27;101882.91;;;19.68;88.25
36692;BME280;22678;52.052;4.242;2022-08-01T06:59:53;101882.00;;;19.69;87.89
36692;BME280;22678;52.052;4.242;2022-08-01T07:02:19;101885.22;;;19.82;88.00
36692;BME280;22678;52.052;4.242;2022-08-01T07:04:44;101888.50;;;19.90;87.29
36692;BME280;22678;52.052;4.242;2022-08-01T07:07:09;101886.59;;;19.95;87.18
36692;BME280;22678;52.052;4.242;2022-08-01T07:09:35;101893.59;;;20.00;86.47
36692;BME280;22678;52.052;4.242;2022-08-01T07:12:00;101891.06;;;19.95;86.25
36692;BME280;22678;52.052;4.242;2022-08-01T07:14:25;101896.41;;;19.95;86.01
36692;BME280;22678;52.052;4.242;2022-08-01T07:16:51;101885.13;;;19.85;85.82
36692;BME280;22678;52.052;4.242;2022-08-01T07:19:17;101900.28;;;19.85;85.38
36692;BME280;22678;52.052;4.242;2022-08-01T07:21:42;101896.91;;;19.76;85.32
36692;BME280;22678;52.052;4.242;2022-08-01T07:24:09;101887.34;;;19.69;85.01
36692;BME280;22678;52.052;4.242;2022-08-01T07:26:35;101899.78;;;19.70;84.87
36692;BME280;22678;52.052;4.242;2022-08-01T07:29:00;101904.19;;;19.71;84.62
36692;BME280;22678;52.052;4.242;2022-08-01T07:31:26;101904.00;;;19.77;84.25
36692;BME280;22678;52.052;4.242;2022-08-01T07:33:51;101898.59;;;19.81;84.19
36692;BME280;22678;52.052;4.242;2022-08-01T07:36:17;101901.69;;;19.97;82.83
36692;BME280;22678;52.052;4.242;2022-08-01T07:38:43;101903.97;;;20.09;81.83
36692;BME280;22678;52.052;4.242;2022-08-01T07:41:08;101901.50;;;20.31;80.78
36692;BME280;22678;52.052;4.242;2022-08-01T07:43:34;101909.53;;;20.58;79.07
36692;BME280;22678;52.052;4.242;2022-08-01T07:46:01;101900.94;;;20.76;77.23
36692;BME280;22678;52.052;4.242;2022-08-01T07:48:27;101903.00;;;20.93;74.95
36692;BME280;22678;52.052;4.242;2022-08-01T07:50:52;101905.44;;;21.01;75.63
36692;BME280;22678;52.052;4.242;2022-08-01T07:53:18;101910.44;;;21.10;74.44
36692;BME280;22678;52.052;4.242;2022-08-01T07:55:43;101919.06;;;21.18;74.07
36692;BME280;22678;52.052;4.242;2022-08-01T07:58:08;101908.41;;;21.17;71.94
36692;BME280;22678;52.052;4.242;2022-08-01T08:00:34;101916.19;;;21.25;72.25
36692;BME280;22678;52.052;4.242;2022-08-01T08:02:59;101927.34;;;21.36;72.20
36692;BME280;22678;52.052;4.242;2022-08-01T08:05:27;101915.59;;;21.40;71.74
36692;BME280;22678;52.052;4.242;2022-08-01T08:07:53;101924.97;;;21.53;71.20
36692;BME280;22678;52.052;4.242;2022-08-01T08:10:18;101934.22;;;21.68;70.69
36692;BME280;22678;52.052;4.242;2022-08-01T08:12:44;101920.69;;;21.73;69.63
36692;BME280;22678;52.052;4.242;2022-08-01T08:15:11;101927.53;;;21.80;68.62
36692;BME280;22678;52.052;4.242;2022-08-01T08:17:38;101929.41;;;21.78;68.51
36692;BME280;22678;52.052;4.242;2022-08-01T08:20:05;101926.78;;;21.77;67.68
36692;BME280;22678;52.052;4.242;2022-08-01T08:22:30;101939.75;;;21.87;67.64
36692;BME280;22678;52.052;4.242;2022-08-01T08:24:56;101941.25;;;21.95;67.70
36692;BME280;22678;52.052;4.242;2022-08-01T08:27:21;101934.63;;;22.05;67.90
36692;BME280;22678;52.052;4.242;2022-08-01T08:29:46;101927.34;;;22.09;67.44
36692;BME280;22678;52.052;4.242;2022-08-01T08:32:12;101945.53;;;22.22;68.02
36692;BME280;22678;52.052;4.242;2022-08-01T08:34:37;101938.56;;;22.18;67.29
36692;BME280;22678;52.052;4.242;2022-08-01T08:37:02;101865.03;;;21.81;67.07
36692;BME280;22678;52.052;4.242;2022-08-01T08:39:28;101946.81;;;22.36;66.67
36692;BME280;22678;52.052;4.242;2022-08-01T08:41:56;101948.78;;;22.54;65.95
36692;BME280;22678;52.052;4.242;2022-08-01T08:44:22;101953.19;;;22.78;65.61
36692;BME280;22678;52.052;4.242;2022-08-01T08:46:50;101922.13;;;22.72;64.47
36692;BME280;22678;52.052;4.242;2022-08-01T08:49:19;101950.44;;;22.79;65.06
36692;BME280;22678;52.052;4.242;2022-08-01T08:51:47;101953.59;;;22.89;65.06
36692;BME280;22678;52.052;4.242;2022-08-01T08:54:14;101951.78;;;22.89;64.50
36692;BME280;22678;52.052;4.242;2022-08-01T08:56:41;101955.13;;;22.95;63.33
36692;BME280;22678;52.052;4.242;2022-08-01T08:59:07;101952.59;;;22.91;62.51
36692;BME280;22678;52.052;4.242;2022-08-01T09:01:32;101969.09;;;23.03;62.43
36692;BME280;22678;52.052;4.242;2022-08-01T09:04:01;101962.00;;;23.02;62.10
36692;BME280;22678;52.052;4.242;2022-08-01T09:06:26;101973.47;;;23.26;62.33
36692;BME280;22678;52.052;4.242;2022-08-01T09:08:51;101970.72;;;23.48;60.57
36692;BME280;22678;52.052;4.242;2022-08-01T09:11:17;101952.75;;;23.50;60.33
36692;BME280;22678;52.052;4.242;2022-08-01T09:14:01;101956.34;;;23.70;57.78
36692;BME280;22678;52.052;4.242;2022-08-01T09:16:27;101944.81;;;23.68;58.15
36692;BME280;22678;52.052;4.242;2022-08-01T09:18:52;101959.88;;;23.91;57.99
36692;BME280;22678;52.052;4.242;2022-08-01T09:21:19;101967.94;;;24.10;57.26
36692;BME280;22678;52.052;4.242;2022-08-01T09:23:54;101966.41;;;24.23;56.84
36692;BME280;22678;52.052;4.242;2022-08-01T09:26:28;101967.78;;;24.32;56.35
36692;BME280;22678;52.052;4.242;2022-08-01T09:28:54;101968.34;;;24.39;55.58
36692;BME280;22678;52.052;4.242;2022-08-01T09:31:20;101962.69;;;24.45;55.38
36692;BME280;22678;52.052;4.242;2022-08-01T09:33:50;101975.72;;;24.53;53.82
36692;BME280;22678;52.052;4.242;2022-08-01T09:36:17;101942.94;;;24.27;52.36
36692;BME280;22678;52.052;4.242;2022-08-01T09:38:42;101968.28;;;24.40;52.47
36692;BME280;22678;52.052;4.242;2022-08-01T09:41:08;101980.41;;;24.49;52.83
36692;BME280;22678;52.052;4.242;2022-08-01T09:43:33;101963.69;;;24.42;52.81
36692;BME280;22678;52.052;4.242;2022-08-01T09:46:04;101957.16;;;24.48;52.80
36692;BME280;22678;52.052;4.242;2022-08-01T09:48:29;101984.84;;;24.69;53.02
36692;BME280;22678;52.052;4.242;2022-08-01T09:50:59;101995.69;;;24.85;53.75
36692;BME280;22678;52.052;4.242;2022-08-01T09:53:24;101991.66;;;24.94;53.03
36692;BME280;22678;52.052;4.242;2022-08-01T09:55:50;101982.09;;;24.88;52.93
36692;BME280;22678;52.052;4.242;2022-08-01T09:58:17;101995.09;;;24.97;53.03
36692;BME280;22678;52.052;4.242;2022-08-01T10:00:57;101983.66;;;24.92;53.33
36692;BME280;22678;52.052;4.242;2022-08-01T10:03:25;101976.09;;;25.00;53.78
36692;BME280;22678;52.052;4.242;2022-08-01T10:05:51;101966.09;;;25.02;53.64
36692;BME280;22678;52.052;4.242;2022-08-01T10:08:19;101983.06;;;25.22;53.51
36692;BME280;22678;52.052;4.242;2022-08-01T10:11:12;101980.50;;;25.19;53.09
36692;BME280;22678;52.052;4.242;2022-08-01T10:13:38;101962.78;;;25.15;53.25
36692;BME280;22678;52.052;4.242;2022-08-01T10:16:05;101964.06;;;25.25;52.90
36692;BME280;22678;52.052;4.242;2022-08-01T10:18:33;101992.97;;;25.39;52.91
36692;BME280;22678;52.052;4.242;2022-08-01T10:21:00;101964.22;;;25.22;52.75
36692;BME280;22678;52.052;4.242;2022-08-01T10:23:26;101988.13;;;25.28;52.75
36692;BME280;22678;52.052;4.242;2022-08-01T10:25:53;101987.38;;;25.25;52.87
36692;BME280;22678;52.052;4.242;2022-08-01T10:28:21;101969.72;;;25.19;53.26
36692;BME280;22678;52.052;4.242;2022-08-01T10:30:48;101967.38;;;25.13;53.39
36692;BME280;22678;52.052;4.242;2022-08-01T10:33:13;101995.19;;;25.31;53.35
36692;BME280;22678;52.052;4.242;2022-08-01T10:35:39;101996.69;;;25.36;53.92
36692;BME280;22678;52.052;4.242;2022-08-01T10:38:05;101982.03;;;25.42;53.16
36692;BME280;22678;52.052;4.242;2022-08-01T10:40:31;101998.25;;;25.58;53.30
36692;BME280;22678;52.052;4.242;2022-08-01T10:42:57;101978.63;;;25.56;53.17
36692;BME280;22678;52.052;4.242;2022-08-01T10:45:23;101981.75;;;25.64;52.67
36692;BME280;22678;52.052;4.242;2022-08-01T10:48:10;101983.00;;;25.75;52.16
36692;BME280;22678;52.052;4.242;2022-08-01T10:50:42;101988.25;;;25.94;52.07
36692;BME280;22678;52.052;4.242;2022-08-01T10:53:11;101977.56;;;25.92;51.67
36692;BME280;22678;52.052;4.242;2022-08-01T10:58:33;101999.09;;;26.10;51.22
36692;BME280;22678;52.052;4.242;2022-08-01T11:04:09;102009.72;;;26.29;51.05
36692;BME280;22678;52.052;4.242;2022-08-01T11:11:26;102011.53;;;26.60;49.47
36692;BME280;22678;52.052;4.242;2022-08-01T11:14:05;102015.47;;;26.70;49.95
36692;BME280;22678;52.052;4.242;2022-08-01T11:16:35;101983.00;;;26.72;49.30
36692;BME280;22678;52.052;4.242;2022-08-01T11:19:03;101999.31;;;27.01;49.06
36692;BME280;22678;52.052;4.242;2022-08-01T11:27:18;102000.63;;;26.93;47.96
36692;BME280;22678;52.052;4.242;2022-08-01T11:35:13;101999.78;;;27.07;47.40
36692;BME280;22678;52.052;4.242;2022-08-01T11:37:39;101980.59;;;26.98;47.77
36692;BME280;22678;52.052;4.242;2022-08-01T11:40:19;102000.97;;;27.03;47.47
36692;BME280;22678;52.052;4.242;2022-08-01T11:42:46;102010.78;;;27.04;46.97
36692;BME280;22678;52.052;4.242;2022-08-01T11:45:11;101997.34;;;26.88;46.29
36692;BME280;22678;52.052;4.242;2022-08-01T11:47:47;102005.34;;;26.90;46.52
36692;BME280;22678;52.052;4.242;2022-08-01T11:53:00;102003.22;;;26.95;45.98
36692;BME280;22678;52.052;4.242;2022-08-01T11:55:27;102009.00;;;26.89;46.38
36692;BME280;22678;52.052;4.242;2022-08-01T11:58:01;102007.06;;;26.91;46.64
36692;BME280;22678;52.052;4.242;2022-08-01T12:00:27;102005.94;;;26.95;45.74
36692;BME280;22678;52.052;4.242;2022-08-01T12:02:58;102008.81;;;26.92;45.68
36692;BME280;22678;52.052;4.242;2022-08-01T12:05:25;101999.50;;;26.82;45.01
36692;BME280;22678;52.052;4.242;2022-08-01T12:07:52;102015.53;;;26.85;44.87
36692;BME280;22678;52.052;4.242;2022-08-01T12:10:19;102021.53;;;26.90;44.47
36692;BME280;22678;52.052;4.242;2022-08-01T12:12:50;102017.84;;;26.91;44.00
36692;BME280;22678;52.052;4.242;2022-08-01T12:15:17;102017.69;;;26.94;43.81
36692;BME280;22678;52.052;4.242;2022-08-01T12:17:45;102025.34;;;27.02;43.58
36692;BME280;22678;52.052;4.242;2022-08-01T12:20:16;101961.31;;;26.73;43.07
36692;BME280;22678;52.052;4.242;2022-08-01T12:22:44;101999.78;;;27.07;42.69
36692;BME280;22678;52.052;4.242;2022-08-01T12:25:14;102014.09;;;27.09;42.36
36692;BME280;22678;52.052;4.242;2022-08-01T12:27:42;102006.53;;;27.00;42.06
36692;BME280;22678;52.052;4.242;2022-08-01T12:30:18;102012.28;;;26.94;41.36
36692;BME280;22678;52.052;4.242;2022-08-01T12:32:46;101993.94;;;26.85;41.95
36692;BME280;22678;52.052;4.242;2022-08-01T12:35:15;102004.97;;;26.96;42.04
36692;BME280;22678;52.052;4.242;2022-08-01T12:40:10;102017.50;;;26.97;42.01
36692;BME280;22678;52.052;4.242;2022-08-01T12:42:41;102006.88;;;26.94;42.12
36692;BME280;22678;52.052;4.242;2022-08-01T12:45:11;102019.84;;;27.03;42.47
36692;BME280;22678;52.052;4.242;2022-08-01T12:47:38;102017.81;;;27.07;42.77
36692;BME280;22678;52.052;4.242;2022-08-01T12:50:10;101987.38;;;27.05;42.84
36692;BME280;22678;52.052;4.242;2022-08-01T12:52:37;102006.78;;;27.26;43.26
36692;BME280;22678;52.052;4.242;2022-08-01T12:57:41;102013.03;;;27.42;43.77
36692;BME280;22678;52.052;4.242;2022-08-01T13:02:34;102018.44;;;27.42;42.43
36692;BME280;22678;52.052;4.242;2022-08-01T13:05:00;101995.97;;;27.42;42.69
36692;BME280;22678;52.052;4.242;2022-08-01T13:07:36;102011.31;;;27.70;42.51
36692;BME280;22678;52.052;4.242;2022-08-01T13:10:02;102012.88;;;27.74;41.80
36692;BME280;22678;52.052;4.242;2022-08-01T13:12:27;102003.97;;;27.72;41.89
36692;BME280;22678;52.052;4.242;2022-08-01T13:14:53;101982.75;;;27.66;41.23
36692;BME280;22678;52.052;4.242;2022-08-01T13:17:34;102001.06;;;27.90;41.29
36692;BME280;22678;52.052;4.242;2022-08-01T13:20:04;101977.75;;;27.89;40.72
36692;BME280;22678;52.052;4.242;2022-08-01T13:22:35;101994.34;;;28.11;40.61
36692;BME280;22678;52.052;4.242;2022-08-01T13:25:14;101986.22;;;28.26;40.24
36692;BME280;22678;52.052;4.242;2022-08-01T13:27:39;101957.41;;;28.25;39.75
36692;BME280;22678;52.052;4.242;2022-08-01T13:30:16;101977.84;;;28.43;38.04
36692;BME280;22678;52.052;4.242;2022-08-01T13:32:43;101993.06;;;28.59;38.22